Estación Meteorológica Peña el Pijo (Robertgarden) [ 12/16/19 00:34:30 CET ]

Fecha Hora Presion(HPa) Temp (°C) Humedad % Rocio (°C) Viento ( m/s) Direccion Lluvia 1Hora(mm) Lluvia 24H(mm) LLuvia Total(mm)
2019-Feb-11 01:01:41 1013.400 8.3 76 4.3         183.37
2019-Feb-11 02:03:44 1013.400 8.4 76 4.4         183.37
2019-Feb-11 03:01:50 1012.900 8.4 77 4.6         183.37
2019-Feb-11 04:02:08 1013.000 8.4 77 4.6         183.37
2019-Feb-11 05:01:58 1013.100 8.3 78 4.7         183.37
2019-Feb-11 06:01:32 1012.700 8.1 78 4.5         183.37
2019-Feb-11 07:01:54 1012.800 7.6 79 4.2         183.37
2019-Feb-11 08:01:45 1013.500 7.8 80 4.6         183.37
2019-Feb-11 09:01:48 1014.100 8.0 78 4.4         183.37
2019-Feb-11 10:01:44 1014.700 9.3 74 4.9         183.37
2019-Feb-11 11:01:46 1015.000 10.7 66 4.6         183.37
2019-Feb-11 12:01:48 1014.900 12.3 61 5.0         183.37
2019-Feb-11 13:01:58 1014.600 13.3 54 4.1         183.37
2019-Feb-11 14:01:46 1014.300 13.6 53 4.2         183.37
2019-Feb-11 15:01:46 1014.100 13.5 54 4.3         183.37
2019-Feb-11 16:01:49 1014.000 14.4 50 4.2         183.37
2019-Feb-11 17:01:57 1014.200 13.4 50 3.2         183.37
2019-Feb-11 18:02:03 1014.300 10.9 57 2.7         183.37
2019-Feb-11 19:01:41 1014.600 8.5 61 1.4         183.37
2019-Feb-11 20:01:52 1015.500 5.9 68 0.5         183.37
2019-Feb-11 21:01:46 1015.800 4.9 72 0.3         183.37
2019-Feb-11 22:01:55 1016.300 3.6 75 -0.4         183.37
2019-Feb-11 23:01:51 1016.600 4.2 78 0.7         183.37

Temperatura Máxima:14°    Temperatura Mínima:
Presión Máxima:1016.600 Hpa    Presión Mínima:1012.700 Hpa


Volver